Oymekon (Russia)  www.meteorete.it

situazione meteo Attuale :13:01:24
Temperatura : 10.5
Umidita :68.8 %
Pressione :1010.5 hPa
Vel vento :2.8 Km
Direz. :NE
Precip.(mm.):0.0
   

Condizioni Meteo per: Oymekon, Russia

aggiornamento precedente: 24.06.2017 19:32
prossimo aggiornamento: 25.06.2017 08:00
Latitude: 63.46° N
Longitude: 142.79° E
Altitude: 838 m

hPa
mm °C
    Temperatura Precipitazioni Pressione vento Umidità Nuvoloso Nebbia
 03:14     23:48 OGGI
14:00   1010.5 hPa 2.8 m/s 69% 100%
16:00   1010.2 hPa 2.5 m/s 56% 100%
18:00   1010.7 hPa 2.7 m/s 53% 93%
20:00   1011.5 hPa 2.5 m/s 51% 85%
22:00   1012.6 hPa 1.9 m/s 63% 13%
 03:15     23:47 DOMANI
00:00   1014.0 hPa 1.5 m/s 88% 1%
02:00   1014.4 hPa 0.8 m/s 93% 0%
04:00   1015.1 hPa 1.5 m/s 97% 19%
06:00   1015.8 hPa 1.3 m/s 94% 27%
08:00   1015.6 hPa 1.1 m/s 73% 0%
10:00   1014.4 hPa 0.5 m/s 50% 2%
12:00   1012.9 hPa 0.5 m/s 37% 0%
14:00   1011.2 hPa 0.6 m/s 28% 0%
16:00   1009.4 hPa 0.8 m/s 25% 0%
18:00   1008.7 hPa 0.9 m/s 24% 46%
20:00   1008.2 hPa 1.2 m/s 26% 92%
22:00   1008.8 hPa 1.5 m/s 40% 74%
 03:16     23:47 Martedi 27.06.2017
00:00   1008.9 hPa 1.0 m/s 48% 2%
02:00   1008.8 hPa 0.5 m/s 56% 77%
04:00   1009.5 hPa 0.9 m/s 59% 35%
06:00   1010.1 hPa 0.8 m/s 65% 25%
08:00   1009.8 hPa 0.4 m/s 46% 0%
10:00   1008.4 hPa 0.9 m/s 35% 0%
12:00   1006.9 hPa 2.5 m/s 26% 23%
14:00   1005.4 hPa 2.3 m/s 23% 57%
16:00   1004.0 hPa 2.5 m/s 21% 0%
18:00   1003.2 hPa 2.7 m/s 22% 0%
20:00   1003.2 hPa 2.5 m/s 26% 0%
22:00   1003.5 hPa 2.3 m/s 37% 0%
 03:17     23:46 Mercoledi 28.06.2017
00:00   1003.9 hPa 1.9 m/s 53% 0%
02:00   1004.5 hPa 1.7 m/s 63% 0%
04:00   1004.6 hPa 1.6 m/s 68% 0%
11:00   1003.4 hPa 1.9 m/s 31% 61%
17:00   999.9 hPa 2.3 m/s 22% 100%
23:00   1001.3 hPa 1.9 m/s 46% 90%
 03:19     23:45 Giovedi 29.06.2017
05:00   1001.2 hPa 1.7 m/s 67% 98%
11:00   999.9 hPa 3.2 m/s 42% 98%
17:00 3.0 mm 1001.6 hPa 3.0 m/s 60% 55%
23:00   1004.6 hPa 2.0 m/s 68% 35%
 03:20     23:44 Venerdi 30.06.2017
05:00   1006.8 hPa 1.0 m/s 83% 23%
11:00   1005.7 hPa 0.7 m/s 35% 27%
17:00   1001.7 hPa 2.3 m/s 19% 32%
23:00   999.7 hPa 1.8 m/s 44% 2%
 03:21     23:43 Sabato 01.07.2017
05:00   999.0 hPa 1.2 m/s 49% 99%
11:00   998.6 hPa 4.2 m/s 46% 64%
17:00   996.1 hPa 4.3 m/s 34% 67%
23:00   996.7 hPa 2.3 m/s 55% 96%
 03:23     23:42 Domenica 02.07.2017
05:00   995.7 hPa 0.8 m/s 72% 98%
11:00 0.5 mm 992.3 hPa 4.0 m/s 58% 92%
17:00   990.4 hPa 5.7 m/s 39% 77%
23:00 1.2 mm 994.5 hPa 2.6 m/s 78% 25%
 03:25     23:40 Lunedi 03.07.2017
05:00   996.2 hPa 2.4 m/s 85% 66%
11:00 1.1 mm 998.4 hPa 3.4 m/s 44% 32%
17:00   999.4 hPa 4.0 m/s 22% 0%
23:00   1003.2 hPa 1.8 m/s 63% 0%
 03:27     23:39 Martedi 04.07.2017
05:00   1004.6 hPa 1.0 m/s 80% 88%
11:00   1000.6 hPa 1.3 m/s 36% 100%
17:00 1.5 mm 996.3 hPa 0.9 m/s 91% 100%
23:00 6.6 mm 988.9 hPa 2.7 m/s 97% 100%